createdAt,value
2023-02-06T00:01:50.758Z,-3.82
2023-02-06T00:04:19.899Z,-3.81
2023-02-06T00:06:47.817Z,-3.33
2023-02-06T00:09:15.835Z,-3.36
2023-02-06T00:11:43.675Z,-3.19
2023-02-06T00:14:11.525Z,-2.85
2023-02-06T00:16:39.551Z,-2.53
2023-02-06T00:19:07.490Z,-2.33
2023-02-06T00:21:35.377Z,-2.17
2023-02-06T00:24:04.467Z,-2.37
2023-02-06T00:26:32.499Z,-2.60
2023-02-06T00:29:00.761Z,-2.80
2023-02-06T00:31:28.998Z,-2.64
2023-02-06T00:33:56.861Z,-2.82
2023-02-06T00:36:24.822Z,-2.42
2023-02-06T00:38:55.024Z,-2.71
2023-02-06T00:41:22.864Z,-3.13
2023-02-06T00:43:50.709Z,-3.06
2023-02-06T00:46:18.562Z,-3.12
2023-02-06T00:48:46.465Z,-3.00
2023-02-06T00:51:14.405Z,-3.14
2023-02-06T00:53:42.253Z,-3.23
2023-02-06T00:56:10.113Z,-3.19
2023-02-06T00:58:37.983Z,-3.39
2023-02-06T01:01:05.892Z,-3.44
2023-02-06T01:03:34.338Z,-3.65
2023-02-06T01:06:02.291Z,-3.34
2023-02-06T01:08:30.101Z,-2.86
2023-02-06T01:10:58.013Z,-2.80
2023-02-06T01:13:26.908Z,-2.57
2023-02-06T01:15:54.744Z,-2.53
2023-02-06T01:18:22.612Z,-2.14
2023-02-06T01:20:50.444Z,-2.03
2023-02-06T01:23:18.303Z,-1.87
2023-02-06T01:25:46.248Z,-1.80
2023-02-06T01:28:14.102Z,-1.75
2023-02-06T01:30:42.034Z,-1.74
2023-02-06T01:33:09.922Z,-1.79
2023-02-06T01:35:37.843Z,-1.69
2023-02-06T01:38:05.734Z,-1.60
2023-02-06T01:40:33.621Z,-1.59
2023-02-06T01:43:02.077Z,-1.67
2023-02-06T01:45:42.417Z,-1.78
2023-02-06T01:48:28.902Z,-2.60
2023-02-06T01:50:59.925Z,-2.65
2023-02-06T01:53:30.560Z,-2.48
2023-02-06T01:56:03.134Z,-2.76
2023-02-06T01:58:43.662Z,-2.66
2023-02-06T02:01:11.982Z,-2.87
2023-02-06T02:03:45.530Z,-3.02
2023-02-06T02:06:19.406Z,-2.68
2023-02-06T02:08:51.978Z,-3.02
2023-02-06T02:11:43.045Z,-2.89
2023-02-06T02:14:15.920Z,-3.08
2023-02-06T02:17:16.909Z,-3.39
2023-02-06T02:20:43.823Z,-3.42
2023-02-06T02:24:14.723Z,-2.79
2023-02-06T02:27:15.888Z,-2.37
2023-02-06T02:30:38.850Z,-2.73
2023-02-06T02:33:23.512Z,-2.41
2023-02-06T02:36:12.059Z,-2.65
2023-02-06T02:39:29.360Z,-2.41
2023-02-06T02:42:26.757Z,-2.23
2023-02-06T02:45:16.493Z,-2.66
2023-02-06T02:48:23.639Z,-2.66
2023-02-06T02:50:55.058Z,-2.70
2023-02-06T02:53:23.101Z,-2.79
2023-02-06T02:55:50.991Z,-2.40
2023-02-06T02:58:33.680Z,-1.93
2023-02-06T03:01:11.792Z,-1.59
2023-02-06T03:03:42.166Z,-1.50
2023-02-06T03:06:52.016Z,-1.44
2023-02-06T03:09:45.594Z,-1.54
2023-02-06T03:12:44.460Z,-1.49
2023-02-06T03:15:44.107Z,-1.13
2023-02-06T03:19:11.677Z,-1.18
2023-02-06T03:21:41.666Z,-1.21
2023-02-06T03:24:24.490Z,-1.08
2023-02-06T03:27:02.441Z,-0.88
2023-02-06T03:29:34.794Z,-0.70
2023-02-06T03:32:18.922Z,-0.78
2023-02-06T03:35:20.081Z,-0.86
2023-02-06T03:37:48.809Z,-0.83
2023-02-06T03:40:18.633Z,-0.65
2023-02-06T03:42:56.693Z,-0.59
2023-02-06T03:45:36.306Z,-0.65
2023-02-06T03:48:23.944Z,-0.92
2023-02-06T03:50:56.092Z,-0.74
2023-02-06T03:53:26.332Z,-0.54
2023-02-06T03:56:01.533Z,-0.49
2023-02-06T03:58:29.671Z,-0.65
2023-02-06T04:00:57.946Z,-0.70
2023-02-06T04:03:26.468Z,-0.69
2023-02-06T04:05:54.375Z,-0.51
2023-02-06T04:08:22.216Z,-1.04
2023-02-06T04:10:50.151Z,-0.68
2023-02-06T04:13:17.995Z,-0.51
2023-02-06T04:15:46.069Z,-0.30
2023-02-06T04:18:13.986Z,-0.36
2023-02-06T04:20:41.837Z,-0.63
2023-02-06T04:23:09.840Z,-0.32
2023-02-06T04:25:38.083Z,-0.19
2023-02-06T04:28:06.273Z,0.00
2023-02-06T04:30:34.307Z,-0.11
2023-02-06T04:33:02.385Z,-0.93
2023-02-06T04:35:30.361Z,-0.37
2023-02-06T04:37:58.188Z,-0.27
2023-02-06T04:40:28.428Z,-0.20
2023-02-06T04:42:57.314Z,-0.29
2023-02-06T04:45:25.586Z,-0.61
2023-02-06T04:47:53.477Z,-0.59
2023-02-06T04:50:21.482Z,-0.33
2023-02-06T04:52:49.398Z,-0.07
2023-02-06T04:55:17.357Z,0.03
2023-02-06T04:57:45.229Z,-0.07
2023-02-06T05:00:14.617Z,0.03
2023-02-06T05:02:42.577Z,0.20
2023-02-06T05:05:12.245Z,0.06
2023-02-06T05:07:40.114Z,-0.32
2023-02-06T05:10:09.329Z,-0.08
2023-02-06T05:12:37.368Z,0.07
2023-02-06T05:15:07.636Z,0.23
2023-02-06T05:17:36.285Z,0.12
2023-02-06T05:20:06.508Z,0.17
2023-02-06T05:22:34.648Z,0.21
2023-02-06T05:25:02.707Z,0.32
2023-02-06T05:27:30.886Z,0.33
2023-02-06T05:29:58.996Z,0.43
2023-02-06T05:32:26.861Z,0.45
2023-02-06T05:34:54.801Z,0.41
2023-02-06T05:37:22.789Z,0.16
2023-02-06T05:39:53.757Z,0.37
2023-02-06T05:42:21.597Z,0.46
2023-02-06T05:44:49.561Z,0.24
2023-02-06T05:47:17.601Z,0.30
2023-02-06T05:49:45.478Z,0.28
2023-02-06T05:52:13.537Z,0.43
2023-02-06T05:54:41.453Z,0.46
2023-02-06T05:57:09.621Z,0.44
2023-02-06T05:59:37.965Z,0.53
2023-02-06T06:02:06.430Z,0.50
2023-02-06T06:04:34.345Z,0.54
2023-02-06T06:07:02.362Z,0.65
2023-02-06T06:09:30.284Z,0.50
2023-02-06T06:11:58.127Z,0.48
2023-02-06T06:14:26.019Z,0.63
2023-02-06T06:16:53.903Z,0.60
2023-02-06T06:19:21.832Z,0.61
2023-02-06T06:21:49.899Z,0.67
2023-02-06T06:24:18.009Z,0.62
2023-02-06T06:26:46.206Z,0.61
2023-02-06T06:29:14.300Z,0.75
2023-02-06T06:31:42.221Z,0.72
2023-02-06T06:34:10.696Z,0.77
2023-02-06T06:36:38.590Z,0.73
2023-02-06T06:39:06.472Z,0.73
2023-02-06T06:41:37.876Z,0.85
2023-02-06T06:44:05.880Z,0.62
2023-02-06T06:46:34.050Z,0.42
2023-02-06T06:49:01.974Z,0.56
2023-02-06T06:51:30.128Z,0.51
2023-02-06T06:53:58.124Z,0.60
2023-02-06T06:56:27.015Z,0.67
2023-02-06T06:58:55.568Z,0.76
2023-02-06T07:01:23.865Z,0.81
2023-02-06T07:03:52.132Z,0.84
2023-02-06T07:06:20.141Z,0.86
2023-02-06T07:08:48.309Z,0.82
2023-02-06T07:11:20.379Z,0.79
2023-02-06T07:13:48.349Z,0.84
2023-02-06T07:16:16.264Z,0.93
2023-02-06T07:18:44.185Z,1.10
2023-02-06T07:21:15.784Z,1.12
2023-02-06T07:23:43.789Z,1.15
2023-02-06T07:26:12.297Z,1.06
2023-02-06T07:28:41.460Z,1.21
2023-02-06T07:31:11.136Z,1.33
2023-02-06T07:33:39.288Z,1.00
2023-02-06T07:36:19.093Z,1.13
2023-02-06T07:38:47.408Z,1.04
2023-02-06T07:41:16.147Z,1.06
2023-02-06T07:43:44.769Z,1.38
2023-02-06T07:46:15.296Z,1.02
2023-02-06T07:48:43.579Z,1.02
2023-02-06T07:51:11.496Z,1.24
2023-02-06T07:53:39.696Z,1.29
2023-02-06T07:56:19.003Z,1.48
2023-02-06T07:58:55.879Z,1.04
2023-02-06T08:01:24.296Z,1.24
2023-02-06T08:03:54.633Z,1.40
2023-02-06T08:06:25.777Z,1.42
2023-02-06T08:08:56.476Z,1.24
2023-02-06T08:11:27.676Z,1.15
2023-02-06T08:13:55.881Z,1.00
2023-02-06T08:16:24.991Z,1.25
2023-02-06T08:18:54.982Z,1.32
2023-02-06T08:21:26.822Z,1.35
2023-02-06T08:24:00.140Z,1.03
2023-02-06T08:26:30.452Z,1.33
2023-02-06T08:29:03.643Z,1.78
2023-02-06T08:31:39.359Z,1.66
2023-02-06T08:34:12.263Z,1.66
2023-02-06T08:36:43.553Z,1.61
2023-02-06T08:39:14.830Z,1.65
2023-02-06T08:41:44.447Z,1.61
2023-02-06T08:44:17.252Z,1.39
2023-02-06T08:46:49.595Z,1.37
2023-02-06T08:49:22.477Z,1.30
2023-02-06T08:51:50.825Z,0.78
2023-02-06T08:54:22.864Z,1.28
2023-02-06T08:56:52.099Z,1.24
2023-02-06T08:59:20.857Z,1.52
2023-02-06T09:01:49.320Z,0.93
2023-02-06T09:04:17.664Z,1.15
2023-02-06T09:06:48.955Z,1.07
2023-02-06T09:09:16.995Z,0.99
2023-02-06T09:11:44.907Z,0.94
2023-02-06T09:14:18.392Z,0.84
2023-02-06T09:16:46.449Z,0.99
2023-02-06T09:19:17.087Z,1.19
2023-02-06T09:21:44.956Z,0.87
2023-02-06T09:24:12.896Z,0.51
2023-02-06T09:26:58.476Z,-0.17
2023-02-06T09:29:31.574Z,0.61
2023-02-06T09:32:00.178Z,1.00
2023-02-06T09:34:28.502Z,0.08
2023-02-06T09:36:57.698Z,0.61
2023-02-06T09:39:26.150Z,0.25
2023-02-06T09:42:06.273Z,0.41
2023-02-06T09:44:42.713Z,0.32
2023-02-06T09:47:37.583Z,-0.05
2023-02-06T09:50:30.651Z,-0.29
2023-02-06T09:53:41.042Z,-0.26
2023-02-06T09:56:31.077Z,0.06
2023-02-06T09:59:35.294Z,-0.23
2023-02-06T10:02:46.096Z,-0.12
2023-02-06T10:05:36.616Z,-0.10
2023-02-06T10:09:05.332Z,0.02
2023-02-06T10:11:56.668Z,-0.11
2023-02-06T10:14:56.482Z,-0.26
2023-02-06T10:17:46.472Z,-0.18
2023-02-06T10:20:36.128Z,-0.10
2023-02-06T10:23:22.186Z,0.24
2023-02-06T10:26:19.054Z,-0.02
2023-02-06T10:28:55.995Z,-0.30
2023-02-06T10:31:54.601Z,-0.27
2023-02-06T10:34:59.157Z,-0.10
2023-02-06T10:38:08.607Z,-0.16
2023-02-06T10:41:06.720Z,0.09
2023-02-06T10:44:22.991Z,0.08
2023-02-06T10:46:54.085Z,0.08
2023-02-06T10:49:44.151Z,-0.01
2023-02-06T10:52:28.801Z,-0.27
2023-02-06T10:55:26.650Z,-0.16
2023-02-06T10:58:37.233Z,-0.06
2023-02-06T11:01:24.634Z,0.01
2023-02-06T11:04:24.869Z,0.17
2023-02-06T11:07:02.357Z,0.45
2023-02-06T11:09:30.771Z,0.27
2023-02-06T11:12:00.722Z,0.38
2023-02-06T11:14:38.745Z,0.15
2023-02-06T11:17:06.645Z,0.35
2023-02-06T11:19:42.322Z,0.13
2023-02-06T11:22:25.815Z,0.16
2023-02-06T11:25:07.817Z,0.11
2023-02-06T11:27:36.584Z,-0.13
2023-02-06T11:30:25.103Z,0.21
2023-02-06T11:33:21.186Z,0.26
2023-02-06T11:35:59.790Z,-0.17
2023-02-06T11:38:30.829Z,-0.24
2023-02-06T11:41:20.716Z,-0.12
2023-02-06T11:43:56.008Z,-0.04
2023-02-06T11:46:36.916Z,0.31
2023-02-06T11:49:31.807Z,0.20
2023-02-06T11:52:01.016Z,0.17
2023-02-06T11:54:35.320Z,0.03
2023-02-06T11:57:34.030Z,0.05
2023-02-06T12:00:25.827Z,0.20
2023-02-06T12:02:55.871Z,-0.13
2023-02-06T12:05:30.811Z,0.20
2023-02-06T12:08:19.333Z,-0.09
2023-02-06T12:11:04.556Z,0.10
2023-02-06T12:13:47.537Z,0.16
2023-02-06T12:16:16.222Z,0.22
2023-02-06T12:18:50.987Z,-0.07
2023-02-06T12:21:40.811Z,0.44
2023-02-06T12:24:28.656Z,0.40
2023-02-06T12:27:02.139Z,-0.02
2023-02-06T12:29:40.640Z,0.31
2023-02-06T12:32:20.607Z,0.11
2023-02-06T12:35:00.714Z,0.39
2023-02-06T12:37:47.454Z,0.76
2023-02-06T12:40:58.886Z,0.53
2023-02-06T12:43:28.509Z,0.70
2023-02-06T12:46:22.587Z,0.61
2023-02-06T12:49:16.265Z,0.85
2023-02-06T12:52:14.454Z,0.58
2023-02-06T12:55:26.110Z,0.98
2023-02-06T12:57:55.333Z,1.32
2023-02-06T13:00:56.906Z,0.66
2023-02-06T13:03:43.660Z,0.67
2023-02-06T13:06:29.742Z,1.08
2023-02-06T13:09:06.401Z,1.11
2023-02-06T13:11:40.535Z,1.31
2023-02-06T13:14:19.454Z,1.31
2023-02-06T13:17:07.809Z,1.21
2023-02-06T13:19:41.677Z,1.03
2023-02-06T13:22:13.381Z,0.83
2023-02-06T13:24:45.351Z,0.92
2023-02-06T13:27:24.597Z,0.88
2023-02-06T13:29:53.991Z,1.01
2023-02-06T13:32:41.972Z,0.84
2023-02-06T13:35:26.376Z,1.15
2023-02-06T13:38:35.208Z,0.90
2023-02-06T13:41:37.173Z,1.44
2023-02-06T13:44:23.037Z,1.12
2023-02-06T13:47:21.325Z,0.89
2023-02-06T13:50:23.863Z,1.19
2023-02-06T13:53:42.517Z,0.50
2023-02-06T13:56:52.260Z,0.57
2023-02-06T13:59:35.997Z,0.86
2023-02-06T14:02:41.770Z,0.97
2023-02-06T14:05:57.610Z,0.60
2023-02-06T14:08:46.973Z,1.01
2023-02-06T14:12:15.977Z,0.42
2023-02-06T14:15:11.360Z,1.42
2023-02-06T14:18:07.081Z,1.15
2023-02-06T14:20:54.711Z,1.05
2023-02-06T14:23:59.108Z,0.97
2023-02-06T14:26:57.592Z,1.02
2023-02-06T14:30:02.500Z,1.13
2023-02-06T14:33:06.680Z,1.35
2023-02-06T14:36:25.072Z,0.98
2023-02-06T14:39:25.355Z,1.29
2023-02-06T14:41:54.135Z,1.16
2023-02-06T14:44:31.016Z,1.23
2023-02-06T14:46:59.301Z,1.57
2023-02-06T14:49:38.029Z,1.85
2023-02-06T14:53:35.285Z,1.53
2023-02-06T14:56:24.547Z,1.39
2023-02-06T14:58:52.621Z,1.02
2023-02-06T15:01:32.790Z,1.10
2023-02-06T15:04:27.060Z,1.26
2023-02-06T15:07:02.083Z,1.27
2023-02-06T15:09:46.490Z,1.23
2023-02-06T15:12:26.609Z,1.36
2023-02-06T15:15:25.663Z,1.69
2023-02-06T15:18:17.127Z,1.58
2023-02-06T15:20:59.221Z,1.74
2023-02-06T15:24:16.297Z,1.53
2023-02-06T15:27:02.014Z,1.17
2023-02-06T15:29:30.387Z,1.05
2023-02-06T15:32:21.626Z,1.23
2023-02-06T15:34:53.233Z,1.39
2023-02-06T15:37:31.292Z,1.07
2023-02-06T15:40:15.273Z,0.67
2023-02-06T15:42:43.442Z,0.54
2023-02-06T15:45:37.026Z,0.51
2023-02-06T15:48:52.972Z,0.59
2023-02-06T15:51:50.567Z,0.76
2023-02-06T15:54:26.234Z,0.86
2023-02-06T15:57:14.914Z,0.62
2023-02-06T15:59:43.547Z,0.92
2023-02-06T16:02:45.890Z,0.80
2023-02-06T16:05:34.230Z,1.06
2023-02-06T16:08:12.956Z,0.79
2023-02-06T16:10:41.529Z,0.75
2023-02-06T16:13:16.953Z,0.41
2023-02-06T16:16:11.523Z,0.41
2023-02-06T16:18:42.772Z,0.46
2023-02-06T16:21:17.250Z,0.71
2023-02-06T16:23:51.567Z,0.77
2023-02-06T16:26:44.177Z,0.70
2023-02-06T16:29:32.441Z,0.62
2023-02-06T16:32:22.092Z,0.53
2023-02-06T16:34:50.641Z,0.50
2023-02-06T16:37:29.431Z,0.42
2023-02-06T16:39:57.474Z,0.04
2023-02-06T16:42:34.749Z,-0.01
2023-02-06T16:45:18.936Z,-0.04
2023-02-06T16:47:47.109Z,-0.04
2023-02-06T16:50:16.763Z,-0.06
2023-02-06T16:52:55.856Z,-0.39
2023-02-06T16:55:26.303Z,-0.40
2023-02-06T16:58:00.465Z,-0.54
2023-02-06T17:00:31.696Z,-0.47
2023-02-06T17:02:59.971Z,-0.87
2023-02-06T17:05:29.315Z,-1.08
2023-02-06T17:07:57.369Z,-1.14
2023-02-06T17:10:26.802Z,-0.83
2023-02-06T17:12:54.736Z,-0.93
2023-02-06T17:15:22.803Z,-0.96
2023-02-06T17:17:51.827Z,-0.91
2023-02-06T17:20:39.966Z,-0.71
2023-02-06T17:23:10.951Z,-0.75
2023-02-06T17:25:42.015Z,-1.11
2023-02-06T17:28:16.689Z,-1.35
2023-02-06T17:30:46.303Z,-1.28
2023-02-06T17:33:14.340Z,-0.98
2023-02-06T17:35:42.278Z,-0.54
2023-02-06T17:38:10.513Z,-0.52
2023-02-06T17:40:40.926Z,-0.20
2023-02-06T17:43:08.949Z,-0.20
2023-02-06T17:45:39.600Z,-0.20
2023-02-06T17:48:08.744Z,-0.67
2023-02-06T17:50:39.157Z,-1.56
2023-02-06T17:53:11.907Z,-1.40
2023-02-06T17:55:41.095Z,-1.06
2023-02-06T17:58:09.788Z,-0.65
2023-02-06T18:00:38.218Z,-0.61
2023-02-06T18:03:06.460Z,-0.56
2023-02-06T18:05:34.826Z,-1.75
2023-02-06T18:08:02.841Z,-1.68
2023-02-06T18:10:30.877Z,-1.77
2023-02-06T18:12:58.898Z,-2.43
2023-02-06T18:15:26.758Z,-2.71
2023-02-06T18:17:54.977Z,-2.57
2023-02-06T18:20:22.933Z,-1.99
2023-02-06T18:22:50.808Z,-2.02
2023-02-06T18:25:18.802Z,-1.72
2023-02-06T18:27:47.825Z,-1.49
2023-02-06T18:30:17.157Z,-1.83
2023-02-06T18:32:45.121Z,-2.13
2023-02-06T18:35:14.851Z,-2.35
2023-02-06T18:37:43.751Z,-2.63
2023-02-06T18:40:12.611Z,-2.54
2023-02-06T18:42:54.492Z,-2.58
2023-02-06T18:45:31.178Z,-2.13
2023-02-06T18:47:59.200Z,-2.17
2023-02-06T18:50:27.470Z,-2.06
2023-02-06T18:52:55.769Z,-2.10
2023-02-06T18:55:23.833Z,-2.69
2023-02-06T18:57:52.796Z,-2.61
2023-02-06T19:00:23.981Z,-2.55
2023-02-06T19:02:52.023Z,-3.12
2023-02-06T19:05:20.817Z,-3.26
2023-02-06T19:07:52.152Z,-3.43
2023-02-06T19:10:21.508Z,-3.19
2023-02-06T19:12:49.408Z,-2.94
2023-02-06T19:15:17.354Z,-3.10
2023-02-06T19:17:45.344Z,-3.33
2023-02-06T19:20:13.631Z,-3.34
2023-02-06T19:22:41.566Z,-3.23
2023-02-06T19:25:14.241Z,-3.11
2023-02-06T19:27:42.505Z,-3.47
2023-02-06T19:30:13.455Z,-3.79
2023-02-06T19:32:41.932Z,-3.71
2023-02-06T19:35:11.875Z,-3.35
2023-02-06T19:37:40.125Z,-3.12
2023-02-06T19:40:08.597Z,-3.00
2023-02-06T19:42:38.885Z,-2.63
2023-02-06T19:45:07.336Z,-2.61
2023-02-06T19:47:36.101Z,-2.77
2023-02-06T19:50:05.114Z,-2.69
2023-02-06T19:52:35.197Z,-2.61
2023-02-06T19:55:04.129Z,-2.69
2023-02-06T19:57:32.050Z,-3.10
2023-02-06T19:59:59.972Z,-2.96
2023-02-06T20:02:29.451Z,-2.32
2023-02-06T20:04:57.381Z,-2.21
2023-02-06T20:07:25.264Z,-2.35
2023-02-06T20:09:55.416Z,-3.25
2023-02-06T20:12:26.074Z,-3.72
2023-02-06T20:14:53.982Z,-3.92
2023-02-06T20:17:23.428Z,-3.38
2023-02-06T20:19:51.331Z,-2.78
2023-02-06T20:22:19.377Z,-3.19
2023-02-06T20:24:47.733Z,-3.50
2023-02-06T20:27:18.470Z,-3.54
2023-02-06T20:29:47.142Z,-3.49
2023-02-06T20:32:17.011Z,-3.65
2023-02-06T20:34:45.807Z,-3.85
2023-02-06T20:37:14.030Z,-3.68
2023-02-06T20:39:41.906Z,-3.55
2023-02-06T20:42:09.832Z,-3.19
2023-02-06T20:44:37.717Z,-3.20
2023-02-06T20:47:05.640Z,-3.07
2023-02-06T20:49:33.555Z,-3.11
2023-02-06T20:52:03.220Z,-3.57
2023-02-06T20:54:31.186Z,-3.98
2023-02-06T20:57:00.471Z,-4.38
2023-02-06T20:59:29.842Z,-4.48
2023-02-06T21:01:58.284Z,-4.23
2023-02-06T21:04:26.174Z,-3.86
2023-02-06T21:06:55.077Z,-3.73
2023-02-06T21:09:22.924Z,-4.17
2023-02-06T21:11:50.821Z,-4.35
2023-02-06T21:14:19.961Z,-4.59
2023-02-06T21:16:48.730Z,-4.54
2023-02-06T21:19:20.469Z,-4.31
2023-02-06T21:21:49.577Z,-4.12
2023-02-06T21:24:18.551Z,-4.23
2023-02-06T21:26:46.944Z,-4.57
2023-02-06T21:29:15.823Z,-4.25
2023-02-06T21:31:46.002Z,-4.35
2023-02-06T21:34:22.774Z,-4.51
2023-02-06T21:36:51.037Z,-4.49
2023-02-06T21:39:23.346Z,-4.73
2023-02-06T21:41:53.744Z,-4.74
2023-02-06T21:44:24.374Z,-4.51
2023-02-06T21:46:53.177Z,-4.63
2023-02-06T21:49:21.629Z,-4.59
2023-02-06T21:51:50.894Z,-4.15
2023-02-06T21:54:19.251Z,-4.34
2023-02-06T21:56:47.174Z,-4.81
2023-02-06T21:59:15.042Z,-4.84
2023-02-06T22:01:43.227Z,-4.82
2023-02-06T22:04:12.530Z,-4.98
2023-02-06T22:06:40.789Z,-4.70
2023-02-06T22:09:15.219Z,-4.28
2023-02-06T22:11:43.947Z,-4.42
2023-02-06T22:14:16.976Z,-4.26
2023-02-06T22:16:48.872Z,-4.03
2023-02-06T22:19:17.908Z,-4.32
2023-02-06T22:21:45.917Z,-4.12
2023-02-06T22:24:14.234Z,-4.11
2023-02-06T22:26:43.064Z,-4.30
2023-02-06T22:29:16.247Z,-4.40
2023-02-06T22:31:45.109Z,-4.39
2023-02-06T22:34:19.513Z,-4.35
2023-02-06T22:36:50.920Z,-3.76
2023-02-06T22:39:19.088Z,-3.58
2023-02-06T22:41:47.769Z,-3.36
2023-02-06T22:44:18.960Z,-3.62
2023-02-06T22:46:51.845Z,-4.15
2023-02-06T22:49:21.507Z,-4.52
2023-02-06T22:51:49.473Z,-4.47
2023-02-06T22:54:17.433Z,-4.21
2023-02-06T22:56:45.601Z,-4.39
2023-02-06T22:59:17.193Z,-4.55
2023-02-06T23:01:53.524Z,-4.69
2023-02-06T23:04:28.937Z,-4.31
2023-02-06T23:06:57.544Z,-4.40
2023-02-06T23:09:38.018Z,-4.25
2023-02-06T23:12:06.911Z,-4.13
2023-02-06T23:14:34.899Z,-3.70
2023-02-06T23:17:05.580Z,-3.48
2023-02-06T23:19:33.914Z,-3.86
2023-02-06T23:22:04.236Z,-4.14
2023-02-06T23:24:32.757Z,-4.01
2023-02-06T23:27:02.131Z,-3.75
2023-02-06T23:29:30.815Z,-3.51
2023-02-06T23:32:01.582Z,-3.34
2023-02-06T23:34:29.563Z,-3.32
2023-02-06T23:36:57.580Z,-3.76
2023-02-06T23:39:25.535Z,-4.47
2023-02-06T23:41:53.542Z,-4.74
2023-02-06T23:44:21.459Z,-4.74
2023-02-06T23:46:49.424Z,-5.00
2023-02-06T23:49:17.386Z,-4.88
2023-02-06T23:51:45.322Z,-4.87
2023-02-06T23:54:13.435Z,-4.99
2023-02-06T23:56:41.411Z,-5.21
2023-02-06T23:59:10.574Z,-5.06
